sensor_id;sensor_type;location;lat;lon;timestamp;P1;durP1;ratioP1;P2;durP2;ratioP2
21501;SDS011;27639;48.674;9.242;2023-09-30T00:00:26;9.55;;;4.63;;
21501;SDS011;27639;48.674;9.242;2023-09-30T00:02:52;9.55;;;4.22;;
21501;SDS011;27639;48.674;9.242;2023-09-30T00:05:17;9.63;;;4.03;;
21501;SDS011;27639;48.674;9.242;2023-09-30T00:07:45;10.00;;;4.07;;
21501;SDS011;27639;48.674;9.242;2023-09-30T00:10:11;10.60;;;4.40;;
21501;SDS011;27639;48.674;9.242;2023-09-30T00:12:36;9.43;;;4.03;;
21501;SDS011;27639;48.674;9.242;2023-09-30T00:15:02;8.82;;;4.20;;
21501;SDS011;27639;48.674;9.242;2023-09-30T00:17:29;9.40;;;3.97;;
21501;SDS011;27639;48.674;9.242;2023-09-30T00:19:54;10.05;;;4.25;;
21501;SDS011;27639;48.674;9.242;2023-09-30T00:22:20;9.65;;;4.28;;
21501;SDS011;27639;48.674;9.242;2023-09-30T00:24:46;9.32;;;4.05;;
21501;SDS011;27639;48.674;9.242;2023-09-30T00:27:12;10.02;;;4.55;;
21501;SDS011;27639;48.674;9.242;2023-09-30T00:29:37;8.25;;;3.67;;
21501;SDS011;27639;48.674;9.242;2023-09-30T00:32:03;8.85;;;3.72;;
21501;SDS011;27639;48.674;9.242;2023-09-30T00:34:31;8.50;;;3.78;;
21501;SDS011;27639;48.674;9.242;2023-09-30T00:36:58;9.90;;;4.10;;
21501;SDS011;27639;48.674;9.242;2023-09-30T00:39:24;8.68;;;3.75;;
21501;SDS011;27639;48.674;9.242;2023-09-30T00:41:52;10.18;;;4.20;;
21501;SDS011;27639;48.674;9.242;2023-09-30T00:44:19;7.72;;;3.20;;
21501;SDS011;27639;48.674;9.242;2023-09-30T00:46:44;9.63;;;3.67;;
21501;SDS011;27639;48.674;9.242;2023-09-30T00:49:10;9.07;;;3.70;;
21501;SDS011;27639;48.674;9.242;2023-09-30T00:51:39;8.75;;;3.85;;
21501;SDS011;27639;48.674;9.242;2023-09-30T00:54:05;8.15;;;3.30;;
21501;SDS011;27639;48.674;9.242;2023-09-30T00:56:31;9.57;;;3.75;;
21501;SDS011;27639;48.674;9.242;2023-09-30T00:58:57;8.55;;;3.80;;
21501;SDS011;27639;48.674;9.242;2023-09-30T01:01:24;10.02;;;4.63;;
21501;SDS011;27639;48.674;9.242;2023-09-30T01:03:50;8.45;;;3.83;;
21501;SDS011;27639;48.674;9.242;2023-09-30T01:06:16;7.20;;;3.30;;
21501;SDS011;27639;48.674;9.242;2023-09-30T01:08:42;7.25;;;3.50;;
21501;SDS011;27639;48.674;9.242;2023-09-30T01:11:08;9.38;;;4.15;;
21501;SDS011;27639;48.674;9.242;2023-09-30T01:13:34;9.65;;;4.53;;
21501;SDS011;27639;48.674;9.242;2023-09-30T01:16:04;8.85;;;3.90;;
21501;SDS011;27639;48.674;9.242;2023-09-30T01:18:31;7.13;;;3.47;;
21501;SDS011;27639;48.674;9.242;2023-09-30T01:20:58;8.13;;;3.47;;
21501;SDS011;27639;48.674;9.242;2023-09-30T01:23:28;9.43;;;3.85;;
21501;SDS011;27639;48.674;9.242;2023-09-30T01:25:54;7.50;;;3.35;;
21501;SDS011;27639;48.674;9.242;2023-09-30T01:28:20;8.63;;;3.40;;
21501;SDS011;27639;48.674;9.242;2023-09-30T01:30:45;7.97;;;3.33;;
21501;SDS011;27639;48.674;9.242;2023-09-30T01:33:11;8.07;;;3.33;;
21501;SDS011;27639;48.674;9.242;2023-09-30T01:35:37;7.90;;;3.30;;
21501;SDS011;27639;48.674;9.242;2023-09-30T01:38:02;7.25;;;3.22;;
21501;SDS011;27639;48.674;9.242;2023-09-30T01:40:28;8.52;;;3.40;;
21501;SDS011;27639;48.674;9.242;2023-09-30T01:42:53;7.13;;;3.65;;
21501;SDS011;27639;48.674;9.242;2023-09-30T01:45:20;8.10;;;3.72;;
21501;SDS011;27639;48.674;9.242;2023-09-30T01:47:46;7.15;;;3.50;;
21501;SDS011;27639;48.674;9.242;2023-09-30T01:50:12;8.45;;;3.60;;
21501;SDS011;27639;48.674;9.242;2023-09-30T01:52:37;7.82;;;3.50;;
21501;SDS011;27639;48.674;9.242;2023-09-30T01:55:03;6.85;;;3.10;;
21501;SDS011;27639;48.674;9.242;2023-09-30T01:57:29;7.45;;;2.95;;
21501;SDS011;27639;48.674;9.242;2023-09-30T01:59:54;7.40;;;3.10;;
21501;SDS011;27639;48.674;9.242;2023-09-30T02:02:20;7.72;;;3.08;;
21501;SDS011;27639;48.674;9.242;2023-09-30T02:04:46;8.15;;;2.90;;
21501;SDS011;27639;48.674;9.242;2023-09-30T02:07:12;8.15;;;2.85;;
21501;SDS011;27639;48.674;9.242;2023-09-30T02:09:37;6.50;;;2.60;;
21501;SDS011;27639;48.674;9.242;2023-09-30T02:12:03;6.93;;;3.05;;
21501;SDS011;27639;48.674;9.242;2023-09-30T02:14:29;6.60;;;2.67;;
21501;SDS011;27639;48.674;9.242;2023-09-30T02:16:54;7.10;;;2.65;;
21501;SDS011;27639;48.674;9.242;2023-09-30T02:19:20;7.57;;;3.00;;
21501;SDS011;27639;48.674;9.242;2023-09-30T02:21:46;6.32;;;2.72;;
21501;SDS011;27639;48.674;9.242;2023-09-30T02:24:13;7.00;;;2.92;;
21501;SDS011;27639;48.674;9.242;2023-09-30T02:26:40;6.90;;;2.88;;
21501;SDS011;27639;48.674;9.242;2023-09-30T02:29:06;7.13;;;2.78;;
21501;SDS011;27639;48.674;9.242;2023-09-30T02:31:32;6.85;;;2.80;;
21501;SDS011;27639;48.674;9.242;2023-09-30T02:33:58;6.72;;;2.75;;
21501;SDS011;27639;48.674;9.242;2023-09-30T02:36:24;7.22;;;2.65;;
21501;SDS011;27639;48.674;9.242;2023-09-30T02:38:50;5.95;;;2.70;;
21501;SDS011;27639;48.674;9.242;2023-09-30T02:41:15;7.57;;;3.20;;
21501;SDS011;27639;48.674;9.242;2023-09-30T02:43:42;6.53;;;3.00;;
21501;SDS011;27639;48.674;9.242;2023-09-30T02:46:07;6.97;;;2.95;;
21501;SDS011;27639;48.674;9.242;2023-09-30T02:48:33;6.72;;;3.10;;
21501;SDS011;27639;48.674;9.242;2023-09-30T02:50:59;6.47;;;3.03;;
21501;SDS011;27639;48.674;9.242;2023-09-30T02:53:24;7.13;;;2.97;;
21501;SDS011;27639;48.674;9.242;2023-09-30T02:55:50;7.32;;;3.03;;
21501;SDS011;27639;48.674;9.242;2023-09-30T02:58:21;6.75;;;3.47;;
21501;SDS011;27639;48.674;9.242;2023-09-30T03:00:49;8.95;;;3.35;;
21501;SDS011;27639;48.674;9.242;2023-09-30T03:03:15;6.85;;;3.15;;
21501;SDS011;27639;48.674;9.242;2023-09-30T03:05:41;7.55;;;3.38;;
21501;SDS011;27639;48.674;9.242;2023-09-30T03:08:13;7.03;;;2.90;;
21501;SDS011;27639;48.674;9.242;2023-09-30T03:10:39;7.13;;;2.92;;
21501;SDS011;27639;48.674;9.242;2023-09-30T03:13:05;7.25;;;2.67;;
21501;SDS011;27639;48.674;9.242;2023-09-30T03:15:32;6.10;;;2.67;;
21501;SDS011;27639;48.674;9.242;2023-09-30T03:17:58;8.43;;;3.38;;
21501;SDS011;27639;48.674;9.242;2023-09-30T03:20:25;6.22;;;2.83;;
21501;SDS011;27639;48.674;9.242;2023-09-30T03:22:51;6.60;;;3.05;;
21501;SDS011;27639;48.674;9.242;2023-09-30T03:25:18;6.10;;;2.85;;
21501;SDS011;27639;48.674;9.242;2023-09-30T03:27:44;6.35;;;2.80;;
21501;SDS011;27639;48.674;9.242;2023-09-30T03:30:13;7.03;;;2.60;;
21501;SDS011;27639;48.674;9.242;2023-09-30T03:32:40;5.95;;;2.97;;
21501;SDS011;27639;48.674;9.242;2023-09-30T03:35:09;7.28;;;2.65;;
21501;SDS011;27639;48.674;9.242;2023-09-30T03:37:36;6.57;;;2.83;;
21501;SDS011;27639;48.674;9.242;2023-09-30T03:40:02;7.60;;;3.08;;
21501;SDS011;27639;48.674;9.242;2023-09-30T03:42:37;7.53;;;3.83;;
21501;SDS011;27639;48.674;9.242;2023-09-30T03:45:04;5.95;;;2.75;;
21501;SDS011;27639;48.674;9.242;2023-09-30T03:47:32;7.53;;;2.85;;
21501;SDS011;27639;48.674;9.242;2023-09-30T03:49:59;7.15;;;3.45;;
21501;SDS011;27639;48.674;9.242;2023-09-30T03:52:25;7.13;;;3.13;;
21501;SDS011;27639;48.674;9.242;2023-09-30T03:54:51;7.40;;;3.17;;
21501;SDS011;27639;48.674;9.242;2023-09-30T03:57:18;8.10;;;3.10;;
21501;SDS011;27639;48.674;9.242;2023-09-30T03:59:44;8.18;;;3.22;;
21501;SDS011;27639;48.674;9.242;2023-09-30T04:02:11;6.43;;;2.63;;
21501;SDS011;27639;48.674;9.242;2023-09-30T04:04:37;7.22;;;2.88;;
21501;SDS011;27639;48.674;9.242;2023-09-30T04:07:02;6.60;;;2.95;;
21501;SDS011;27639;48.674;9.242;2023-09-30T04:09:30;6.45;;;2.88;;
21501;SDS011;27639;48.674;9.242;2023-09-30T04:11:57;5.85;;;2.50;;
21501;SDS011;27639;48.674;9.242;2023-09-30T04:14:23;7.53;;;3.05;;
21501;SDS011;27639;48.674;9.242;2023-09-30T04:16:50;6.32;;;2.90;;
21501;SDS011;27639;48.674;9.242;2023-09-30T04:19:16;7.13;;;3.60;;
21501;SDS011;27639;48.674;9.242;2023-09-30T04:21:41;6.88;;;3.08;;
21501;SDS011;27639;48.674;9.242;2023-09-30T04:24:08;6.47;;;3.30;;
21501;SDS011;27639;48.674;9.242;2023-09-30T04:26:34;7.88;;;3.35;;
21501;SDS011;27639;48.674;9.242;2023-09-30T04:29:00;7.03;;;2.58;;
21501;SDS011;27639;48.674;9.242;2023-09-30T04:31:27;6.32;;;3.35;;
21501;SDS011;27639;48.674;9.242;2023-09-30T04:33:53;6.90;;;2.33;;
21501;SDS011;27639;48.674;9.242;2023-09-30T04:36:19;6.88;;;2.90;;
21501;SDS011;27639;48.674;9.242;2023-09-30T04:38:46;7.28;;;3.00;;
21501;SDS011;27639;48.674;9.242;2023-09-30T04:41:12;7.32;;;2.72;;
21501;SDS011;27639;48.674;9.242;2023-09-30T04:43:38;5.60;;;2.75;;
21501;SDS011;27639;48.674;9.242;2023-09-30T04:46:04;6.13;;;2.90;;
21501;SDS011;27639;48.674;9.242;2023-09-30T04:48:32;7.80;;;3.38;;
21501;SDS011;27639;48.674;9.242;2023-09-30T04:50:57;7.32;;;3.53;;
21501;SDS011;27639;48.674;9.242;2023-09-30T04:53:23;7.15;;;3.03;;
21501;SDS011;27639;48.674;9.242;2023-09-30T04:55:48;7.03;;;2.95;;
21501;SDS011;27639;48.674;9.242;2023-09-30T04:58:15;6.18;;;3.35;;
21501;SDS011;27639;48.674;9.242;2023-09-30T05:00:41;6.07;;;2.75;;
21501;SDS011;27639;48.674;9.242;2023-09-30T05:03:07;7.38;;;3.17;;
21501;SDS011;27639;48.674;9.242;2023-09-30T05:05:32;6.05;;;3.05;;
21501;SDS011;27639;48.674;9.242;2023-09-30T05:07:59;6.90;;;2.95;;
21501;SDS011;27639;48.674;9.242;2023-09-30T05:10:25;5.43;;;2.83;;
21501;SDS011;27639;48.674;9.242;2023-09-30T05:12:50;6.43;;;3.50;;
21501;SDS011;27639;48.674;9.242;2023-09-30T05:15:19;7.57;;;3.53;;
21501;SDS011;27639;48.674;9.242;2023-09-30T05:17:46;7.40;;;3.22;;
21501;SDS011;27639;48.674;9.242;2023-09-30T05:20:12;7.03;;;3.47;;
21501;SDS011;27639;48.674;9.242;2023-09-30T05:22:39;7.18;;;3.72;;
21501;SDS011;27639;48.674;9.242;2023-09-30T05:25:10;6.80;;;2.95;;
21501;SDS011;27639;48.674;9.242;2023-09-30T05:27:36;6.10;;;3.08;;
21501;SDS011;27639;48.674;9.242;2023-09-30T05:30:02;5.53;;;3.08;;
21501;SDS011;27639;48.674;9.242;2023-09-30T05:32:31;5.15;;;2.75;;
21501;SDS011;27639;48.674;9.242;2023-09-30T05:34:56;7.10;;;3.50;;
21501;SDS011;27639;48.674;9.242;2023-09-30T05:37:22;7.97;;;3.53;;
21501;SDS011;27639;48.674;9.242;2023-09-30T05:39:49;8.23;;;3.70;;
21501;SDS011;27639;48.674;9.242;2023-09-30T05:42:17;8.15;;;3.22;;
21501;SDS011;27639;48.674;9.242;2023-09-30T05:44:44;7.15;;;3.35;;
21501;SDS011;27639;48.674;9.242;2023-09-30T05:47:10;6.95;;;3.42;;
21501;SDS011;27639;48.674;9.242;2023-09-30T05:49:37;7.55;;;3.58;;
21501;SDS011;27639;48.674;9.242;2023-09-30T05:52:02;7.32;;;3.30;;
21501;SDS011;27639;48.674;9.242;2023-09-30T05:54:28;6.45;;;3.47;;
21501;SDS011;27639;48.674;9.242;2023-09-30T05:56:54;6.95;;;3.13;;
21501;SDS011;27639;48.674;9.242;2023-09-30T05:59:20;8.95;;;4.30;;
21501;SDS011;27639;48.674;9.242;2023-09-30T06:01:45;7.53;;;3.67;;
21501;SDS011;27639;48.674;9.242;2023-09-30T06:04:11;17.88;;;10.98;;
21501;SDS011;27639;48.674;9.242;2023-09-30T06:06:37;25.48;;;15.82;;
21501;SDS011;27639;48.674;9.242;2023-09-30T06:09:03;29.23;;;18.80;;
21501;SDS011;27639;48.674;9.242;2023-09-30T06:11:32;17.80;;;11.82;;
21501;SDS011;27639;48.674;9.242;2023-09-30T06:13:58;31.83;;;12.35;;
21501;SDS011;27639;48.674;9.242;2023-09-30T06:16:26;35.28;;;9.13;;
21501;SDS011;27639;48.674;9.242;2023-09-30T06:18:52;18.02;;;6.32;;
21501;SDS011;27639;48.674;9.242;2023-09-30T06:21:18;16.65;;;5.57;;
21501;SDS011;27639;48.674;9.242;2023-09-30T06:23:46;11.18;;;4.93;;
21501;SDS011;27639;48.674;9.242;2023-09-30T06:26:12;13.55;;;5.53;;
21501;SDS011;27639;48.674;9.242;2023-09-30T06:28:38;8.82;;;4.60;;
21501;SDS011;27639;48.674;9.242;2023-09-30T06:31:07;8.02;;;4.45;;
21501;SDS011;27639;48.674;9.242;2023-09-30T06:33:33;13.05;;;4.85;;
21501;SDS011;27639;48.674;9.242;2023-09-30T06:36:12;11.80;;;4.55;;
21501;SDS011;27639;48.674;9.242;2023-09-30T06:38:41;21.98;;;5.90;;
21501;SDS011;27639;48.674;9.242;2023-09-30T06:41:08;13.65;;;5.57;;
21501;SDS011;27639;48.674;9.242;2023-09-30T06:43:34;16.27;;;5.57;;
21501;SDS011;27639;48.674;9.242;2023-09-30T06:46:07;12.40;;;5.70;;
21501;SDS011;27639;48.674;9.242;2023-09-30T06:48:34;15.90;;;5.82;;
21501;SDS011;27639;48.674;9.242;2023-09-30T06:51:00;21.10;;;5.72;;
21501;SDS011;27639;48.674;9.242;2023-09-30T06:53:26;14.05;;;6.53;;
21501;SDS011;27639;48.674;9.242;2023-09-30T06:55:52;16.10;;;5.28;;
21501;SDS011;27639;48.674;9.242;2023-09-30T06:58:17;16.23;;;5.75;;
21501;SDS011;27639;48.674;9.242;2023-09-30T07:00:47;17.65;;;5.40;;
21501;SDS011;27639;48.674;9.242;2023-09-30T07:03:14;15.10;;;5.63;;
21501;SDS011;27639;48.674;9.242;2023-09-30T07:05:40;11.55;;;5.05;;
21501;SDS011;27639;48.674;9.242;2023-09-30T07:08:06;10.98;;;4.70;;
21501;SDS011;27639;48.674;9.242;2023-09-30T07:10:32;11.50;;;4.82;;
21501;SDS011;27639;48.674;9.242;2023-09-30T07:12:58;8.18;;;4.07;;
21501;SDS011;27639;48.674;9.242;2023-09-30T07:15:24;11.35;;;4.53;;
21501;SDS011;27639;48.674;9.242;2023-09-30T07:17:49;10.90;;;4.68;;
21501;SDS011;27639;48.674;9.242;2023-09-30T07:20:15;9.68;;;4.50;;
21501;SDS011;27639;48.674;9.242;2023-09-30T07:22:41;8.38;;;4.32;;
21501;SDS011;27639;48.674;9.242;2023-09-30T07:25:07;9.43;;;4.18;;
21501;SDS011;27639;48.674;9.242;2023-09-30T07:27:33;8.75;;;4.07;;
21501;SDS011;27639;48.674;9.242;2023-09-30T07:29:59;8.57;;;4.00;;
21501;SDS011;27639;48.674;9.242;2023-09-30T07:32:25;7.90;;;4.70;;
21501;SDS011;27639;48.674;9.242;2023-09-30T07:34:51;8.48;;;4.32;;
21501;SDS011;27639;48.674;9.242;2023-09-30T07:37:16;8.40;;;4.40;;
21501;SDS011;27639;48.674;9.242;2023-09-30T07:39:43;8.00;;;4.05;;
21501;SDS011;27639;48.674;9.242;2023-09-30T07:42:09;8.50;;;4.07;;
21501;SDS011;27639;48.674;9.242;2023-09-30T07:44:35;7.15;;;3.83;;
21501;SDS011;27639;48.674;9.242;2023-09-30T07:47:02;6.72;;;3.53;;
21501;SDS011;27639;48.674;9.242;2023-09-30T07:49:28;7.13;;;4.07;;
21501;SDS011;27639;48.674;9.242;2023-09-30T07:51:54;7.88;;;3.90;;
21501;SDS011;27639;48.674;9.242;2023-09-30T07:54:20;7.38;;;3.78;;
21501;SDS011;27639;48.674;9.242;2023-09-30T07:56:46;9.25;;;4.32;;
21501;SDS011;27639;48.674;9.242;2023-09-30T07:59:11;6.30;;;3.90;;
21501;SDS011;27639;48.674;9.242;2023-09-30T08:01:38;6.63;;;3.67;;
21501;SDS011;27639;48.674;9.242;2023-09-30T08:04:04;7.70;;;3.70;;
21501;SDS011;27639;48.674;9.242;2023-09-30T08:06:29;7.35;;;3.88;;
21501;SDS011;27639;48.674;9.242;2023-09-30T08:08:56;5.63;;;3.63;;
21501;SDS011;27639;48.674;9.242;2023-09-30T08:11:21;6.72;;;3.78;;
21501;SDS011;27639;48.674;9.242;2023-09-30T08:13:47;7.53;;;4.25;;
21501;SDS011;27639;48.674;9.242;2023-09-30T08:16:12;7.85;;;4.20;;
21501;SDS011;27639;48.674;9.242;2023-09-30T08:18:38;8.45;;;4.30;;
21501;SDS011;27639;48.674;9.242;2023-09-30T08:21:04;8.13;;;4.43;;
21501;SDS011;27639;48.674;9.242;2023-09-30T08:23:30;7.90;;;4.28;;
21501;SDS011;27639;48.674;9.242;2023-09-30T08:25:59;8.40;;;4.30;;
21501;SDS011;27639;48.674;9.242;2023-09-30T08:28:24;8.95;;;4.95;;
21501;SDS011;27639;48.674;9.242;2023-09-30T08:30:50;9.48;;;5.18;;
21501;SDS011;27639;48.674;9.242;2023-09-30T08:33:19;7.70;;;4.80;;
21501;SDS011;27639;48.674;9.242;2023-09-30T08:35:45;8.45;;;5.10;;
21501;SDS011;27639;48.674;9.242;2023-09-30T08:38:10;11.02;;;5.32;;
21501;SDS011;27639;48.674;9.242;2023-09-30T08:40:36;6.82;;;4.40;;
21501;SDS011;27639;48.674;9.242;2023-09-30T08:43:03;7.68;;;4.50;;
21501;SDS011;27639;48.674;9.242;2023-09-30T08:45:29;8.02;;;5.05;;
21501;SDS011;27639;48.674;9.242;2023-09-30T08:48:00;8.05;;;5.05;;
21501;SDS011;27639;48.674;9.242;2023-09-30T08:50:30;9.35;;;5.78;;
21501;SDS011;27639;48.674;9.242;2023-09-30T08:52:57;8.85;;;5.50;;
21501;SDS011;27639;48.674;9.242;2023-09-30T08:55:22;8.32;;;4.80;;
21501;SDS011;27639;48.674;9.242;2023-09-30T08:57:52;8.70;;;5.35;;
21501;SDS011;27639;48.674;9.242;2023-09-30T09:00:18;9.18;;;5.75;;
21501;SDS011;27639;48.674;9.242;2023-09-30T09:02:45;8.85;;;5.53;;
21501;SDS011;27639;48.674;9.242;2023-09-30T09:05:11;9.75;;;5.88;;
21501;SDS011;27639;48.674;9.242;2023-09-30T09:07:36;8.57;;;5.25;;
21501;SDS011;27639;48.674;9.242;2023-09-30T09:10:02;8.27;;;5.13;;
21501;SDS011;27639;48.674;9.242;2023-09-30T09:12:29;9.10;;;4.65;;
21501;SDS011;27639;48.674;9.242;2023-09-30T09:14:55;7.53;;;4.82;;
21501;SDS011;27639;48.674;9.242;2023-09-30T09:17:20;8.30;;;4.57;;
21501;SDS011;27639;48.674;9.242;2023-09-30T09:20:08;9.52;;;4.55;;
21501;SDS011;27639;48.674;9.242;2023-09-30T09:22:39;7.47;;;4.18;;
21501;SDS011;27639;48.674;9.242;2023-09-30T09:25:06;7.25;;;4.47;;
21501;SDS011;27639;48.674;9.242;2023-09-30T09:27:35;9.73;;;5.57;;
21501;SDS011;27639;48.674;9.242;2023-09-30T09:30:14;7.95;;;4.50;;
21501;SDS011;27639;48.674;9.242;2023-09-30T09:33:02;8.27;;;4.75;;
21501;SDS011;27639;48.674;9.242;2023-09-30T09:35:29;8.25;;;4.47;;
21501;SDS011;27639;48.674;9.242;2023-09-30T09:37:58;7.57;;;5.13;;
21501;SDS011;27639;48.674;9.242;2023-09-30T09:40:28;13.70;;;6.07;;
21501;SDS011;27639;48.674;9.242;2023-09-30T09:42:56;8.32;;;4.97;;
21501;SDS011;27639;48.674;9.242;2023-09-30T09:45:24;8.05;;;4.55;;
21501;SDS011;27639;48.674;9.242;2023-09-30T09:47:51;8.35;;;4.53;;
21501;SDS011;27639;48.674;9.242;2023-09-30T09:50:18;7.22;;;4.13;;
21501;SDS011;27639;48.674;9.242;2023-09-30T09:52:48;9.82;;;4.65;;
21501;SDS011;27639;48.674;9.242;2023-09-30T09:55:24;8.07;;;4.35;;
21501;SDS011;27639;48.674;9.242;2023-09-30T09:57:50;6.13;;;3.85;;
21501;SDS011;27639;48.674;9.242;2023-09-30T10:00:17;7.93;;;3.65;;
21501;SDS011;27639;48.674;9.242;2023-09-30T10:02:47;7.00;;;3.70;;
21501;SDS011;27639;48.674;9.242;2023-09-30T10:05:13;6.68;;;3.53;;
21501;SDS011;27639;48.674;9.242;2023-09-30T10:10:27;7.45;;;3.35;;
21501;SDS011;27639;48.674;9.242;2023-09-30T10:12:53;6.90;;;3.70;;
21501;SDS011;27639;48.674;9.242;2023-09-30T10:18:00;5.53;;;2.97;;
21501;SDS011;27639;48.674;9.242;2023-09-30T10:20:31;9.38;;;3.30;;
21501;SDS011;27639;48.674;9.242;2023-09-30T10:25:43;7.03;;;3.38;;
21501;SDS011;27639;48.674;9.242;2023-09-30T10:31:13;6.88;;;3.33;;
21501;SDS011;27639;48.674;9.242;2023-09-30T10:36:36;7.38;;;3.80;;
21501;SDS011;27639;48.674;9.242;2023-09-30T10:39:05;7.80;;;4.32;;
21501;SDS011;27639;48.674;9.242;2023-09-30T10:51:48;8.85;;;4.38;;
21501;SDS011;27639;48.674;9.242;2023-09-30T10:54:24;7.35;;;4.35;;
21501;SDS011;27639;48.674;9.242;2023-09-30T10:56:54;8.88;;;4.30;;
21501;SDS011;27639;48.674;9.242;2023-09-30T10:59:24;8.70;;;4.70;;
21501;SDS011;27639;48.674;9.242;2023-09-30T11:01:51;8.02;;;4.03;;
21501;SDS011;27639;48.674;9.242;2023-09-30T11:04:18;9.05;;;4.47;;
21501;SDS011;27639;48.674;9.242;2023-09-30T11:06:44;8.02;;;3.60;;
21501;SDS011;27639;48.674;9.242;2023-09-30T11:09:15;8.48;;;3.97;;
21501;SDS011;27639;48.674;9.242;2023-09-30T11:14:30;11.02;;;5.32;;
21501;SDS011;27639;48.674;9.242;2023-09-30T11:17:00;11.23;;;5.00;;
21501;SDS011;27639;48.674;9.242;2023-09-30T11:19:34;10.52;;;4.20;;
21501;SDS011;27639;48.674;9.242;2023-09-30T11:22:00;9.13;;;4.37;;
21501;SDS011;27639;48.674;9.242;2023-09-30T11:24:26;9.63;;;4.63;;
21501;SDS011;27639;48.674;9.242;2023-09-30T11:26:54;9.70;;;4.82;;
21501;SDS011;27639;48.674;9.242;2023-09-30T11:29:23;11.75;;;4.65;;
21501;SDS011;27639;48.674;9.242;2023-09-30T11:31:50;7.68;;;4.10;;
21501;SDS011;27639;48.674;9.242;2023-09-30T11:34:18;10.73;;;4.95;;
21501;SDS011;27639;48.674;9.242;2023-09-30T11:36:48;11.50;;;5.00;;
21501;SDS011;27639;48.674;9.242;2023-09-30T11:39:24;9.98;;;5.18;;
21501;SDS011;27639;48.674;9.242;2023-09-30T11:41:51;8.48;;;4.55;;
21501;SDS011;27639;48.674;9.242;2023-09-30T11:44:18;8.93;;;4.63;;
21501;SDS011;27639;48.674;9.242;2023-09-30T11:46:50;9.25;;;4.30;;
21501;SDS011;27639;48.674;9.242;2023-09-30T11:49:24;8.85;;;4.90;;
21501;SDS011;27639;48.674;9.242;2023-09-30T11:51:55;9.00;;;4.65;;
21501;SDS011;27639;48.674;9.242;2023-09-30T11:54:33;10.57;;;4.97;;
21501;SDS011;27639;48.674;9.242;2023-09-30T11:57:06;8.50;;;4.57;;
21501;SDS011;27639;48.674;9.242;2023-09-30T11:59:34;9.57;;;4.85;;
21501;SDS011;27639;48.674;9.242;2023-09-30T12:02:01;8.15;;;4.25;;
21501;SDS011;27639;48.674;9.242;2023-09-30T12:04:28;8.30;;;4.47;;
21501;SDS011;27639;48.674;9.242;2023-09-30T12:06:54;10.10;;;5.03;;
21501;SDS011;27639;48.674;9.242;2023-09-30T12:09:20;8.10;;;3.90;;
21501;SDS011;27639;48.674;9.242;2023-09-30T12:11:51;10.05;;;4.55;;
21501;SDS011;27639;48.674;9.242;2023-09-30T12:14:18;7.30;;;4.07;;
21501;SDS011;27639;48.674;9.242;2023-09-30T12:16:44;9.10;;;4.60;;
21501;SDS011;27639;48.674;9.242;2023-09-30T12:19:11;7.97;;;4.53;;
21501;SDS011;27639;48.674;9.242;2023-09-30T12:21:38;9.55;;;4.32;;
21501;SDS011;27639;48.674;9.242;2023-09-30T12:24:05;7.97;;;5.00;;
21501;SDS011;27639;48.674;9.242;2023-09-30T12:26:32;9.73;;;4.50;;
21501;SDS011;27639;48.674;9.242;2023-09-30T12:28:58;9.95;;;5.28;;
21501;SDS011;27639;48.674;9.242;2023-09-30T12:31:24;9.30;;;5.30;;
21501;SDS011;27639;48.674;9.242;2023-09-30T12:33:49;9.25;;;4.85;;
21501;SDS011;27639;48.674;9.242;2023-09-30T12:36:17;9.48;;;4.47;;
21501;SDS011;27639;48.674;9.242;2023-09-30T12:38:43;9.85;;;4.90;;
21501;SDS011;27639;48.674;9.242;2023-09-30T12:41:09;8.63;;;4.43;;
21501;SDS011;27639;48.674;9.242;2023-09-30T12:43:35;10.10;;;4.68;;
21501;SDS011;27639;48.674;9.242;2023-09-30T12:46:02;8.57;;;4.25;;
21501;SDS011;27639;48.674;9.242;2023-09-30T12:48:29;7.95;;;4.55;;
21501;SDS011;27639;48.674;9.242;2023-09-30T12:50:55;8.13;;;4.65;;
21501;SDS011;27639;48.674;9.242;2023-09-30T12:53:20;10.52;;;4.70;;
21501;SDS011;27639;48.674;9.242;2023-09-30T12:55:46;10.82;;;4.68;;
21501;SDS011;27639;48.674;9.242;2023-09-30T12:58:11;8.30;;;4.57;;
21501;SDS011;27639;48.674;9.242;2023-09-30T13:00:37;8.32;;;4.47;;
21501;SDS011;27639;48.674;9.242;2023-09-30T13:03:03;7.78;;;4.28;;
21501;SDS011;27639;48.674;9.242;2023-09-30T13:05:29;21.73;;;4.95;;
21501;SDS011;27639;48.674;9.242;2023-09-30T13:07:54;8.00;;;4.65;;
21501;SDS011;27639;48.674;9.242;2023-09-30T13:10:21;8.65;;;4.55;;
21501;SDS011;27639;48.674;9.242;2023-09-30T13:12:47;7.35;;;4.35;;
21501;SDS011;27639;48.674;9.242;2023-09-30T13:15:14;10.43;;;4.82;;
21501;SDS011;27639;48.674;9.242;2023-09-30T13:17:40;8.95;;;4.40;;
21501;SDS011;27639;48.674;9.242;2023-09-30T13:20:07;8.82;;;4.57;;
21501;SDS011;27639;48.674;9.242;2023-09-30T13:22:34;9.85;;;4.38;;
21501;SDS011;27639;48.674;9.242;2023-09-30T13:25:03;8.95;;;4.32;;
21501;SDS011;27639;48.674;9.242;2023-09-30T13:27:30;10.20;;;4.50;;
21501;SDS011;27639;48.674;9.242;2023-09-30T13:29:56;9.65;;;4.68;;
21501;SDS011;27639;48.674;9.242;2023-09-30T13:32:23;8.75;;;4.32;;
21501;SDS011;27639;48.674;9.242;2023-09-30T13:34:50;9.73;;;4.72;;
21501;SDS011;27639;48.674;9.242;2023-09-30T13:37:16;12.00;;;4.85;;
21501;SDS011;27639;48.674;9.242;2023-09-30T13:39:42;10.63;;;4.40;;
21501;SDS011;27639;48.674;9.242;2023-09-30T13:42:08;10.00;;;4.80;;
21501;SDS011;27639;48.674;9.242;2023-09-30T13:44:33;8.45;;;4.10;;
21501;SDS011;27639;48.674;9.242;2023-09-30T13:46:59;10.73;;;4.15;;
21501;SDS011;27639;48.674;9.242;2023-09-30T13:49:25;10.80;;;4.72;;
21501;SDS011;27639;48.674;9.242;2023-09-30T13:51:50;9.07;;;4.00;;
21501;SDS011;27639;48.674;9.242;2023-09-30T13:54:16;9.23;;;4.47;;
21501;SDS011;27639;48.674;9.242;2023-09-30T13:56:41;8.00;;;4.43;;
21501;SDS011;27639;48.674;9.242;2023-09-30T13:59:09;8.52;;;4.57;;
21501;SDS011;27639;48.674;9.242;2023-09-30T14:01:35;8.77;;;4.13;;
21501;SDS011;27639;48.674;9.242;2023-09-30T14:04:00;7.55;;;4.18;;
21501;SDS011;27639;48.674;9.242;2023-09-30T14:06:27;10.52;;;4.53;;
21501;SDS011;27639;48.674;9.242;2023-09-30T14:08:54;8.18;;;4.30;;
21501;SDS011;27639;48.674;9.242;2023-09-30T14:11:20;8.05;;;4.30;;
21501;SDS011;27639;48.674;9.242;2023-09-30T14:13:45;10.57;;;4.55;;
21501;SDS011;27639;48.674;9.242;2023-09-30T14:16:11;8.48;;;4.15;;
21501;SDS011;27639;48.674;9.242;2023-09-30T14:18:37;8.73;;;4.05;;
21501;SDS011;27639;48.674;9.242;2023-09-30T14:21:04;9.10;;;4.57;;
21501;SDS011;27639;48.674;9.242;2023-09-30T14:23:30;8.57;;;4.18;;
21501;SDS011;27639;48.674;9.242;2023-09-30T14:25:55;8.00;;;4.43;;
21501;SDS011;27639;48.674;9.242;2023-09-30T14:28:21;8.70;;;4.43;;
21501;SDS011;27639;48.674;9.242;2023-09-30T14:30:47;10.00;;;4.15;;
21501;SDS011;27639;48.674;9.242;2023-09-30T14:33:15;8.77;;;4.40;;
21501;SDS011;27639;48.674;9.242;2023-09-30T14:35:41;9.02;;;4.47;;
21501;SDS011;27639;48.674;9.242;2023-09-30T14:38:08;10.32;;;4.68;;
21501;SDS011;27639;48.674;9.242;2023-09-30T14:40:36;8.73;;;4.30;;
21501;SDS011;27639;48.674;9.242;2023-09-30T14:43:08;10.65;;;4.82;;
21501;SDS011;27639;48.674;9.242;2023-09-30T14:45:38;7.95;;;4.10;;
21501;SDS011;27639;48.674;9.242;2023-09-30T14:48:05;9.90;;;4.13;;
21501;SDS011;27639;48.674;9.242;2023-09-30T14:50:36;9.85;;;4.25;;
21501;SDS011;27639;48.674;9.242;2023-09-30T14:53:02;9.02;;;4.35;;
21501;SDS011;27639;48.674;9.242;2023-09-30T14:55:31;9.40;;;4.25;;
21501;SDS011;27639;48.674;9.242;2023-09-30T14:57:57;10.85;;;5.30;;
21501;SDS011;27639;48.674;9.242;2023-09-30T15:00:22;11.02;;;4.70;;
21501;SDS011;27639;48.674;9.242;2023-09-30T15:02:49;9.43;;;4.25;;
21501;SDS011;27639;48.674;9.242;2023-09-30T15:05:15;9.10;;;4.57;;
21501;SDS011;27639;48.674;9.242;2023-09-30T15:07:41;9.52;;;4.40;;
21501;SDS011;27639;48.674;9.242;2023-09-30T15:10:07;9.52;;;4.95;;